Torrey, Utah
Current Conditions -  °F | °C
As of 3:53 PM on Wednesday 26 Nov 2014 (Local Time) from KBCE Reporting Station
Clear Clear  
Wind Chill: 53°   Ceiling: Unl
Heat Index: 53°   Visibility: 10mi
Dew Point: 20°   Wind: 10mph
Humidity: 27%   Direction: 40°NE
Pressure: 30.46"   Gusts: NA
Location:  38.3°N, 111.42°W
Report Text: KBCE 262253Z AUTO 04009KT 10SM CLR 12/M07 A3046 RMK AO2 SLP269 T01171067
Loading
Personal Weather Stations






























Interactive Weather Map New forecast layout! Learn more

10-Day Weather Forecast

Advertisements
Track Severe Weather on mobile